Time;durP1;ratioP1;P1;durP2;ratioP2;P2;SDS_P1;SDS_P2;PMS_P1;PMS_P2;Temp;Humidity;BMP_temperature;BMP_pressure;BME280_temperature;BME280_humidity;BME280_pressure;Samples;Min_cycle;Max_cycle;Signal;HPM_P1;HPM_P2
2022/12/06 00:00:10;;;;;;;5.50;5.03;;;6.90;99.90;;;;;;6248569;28;20471;-60
2022/12/06 00:03:13;;;;;;;4.63;3.80;;;6.90;99.90;;;;;;6249041;28;20958;-60
2022/12/06 00:06:18;;;;;;;3.87;3.57;;;6.90;99.90;;;;;;6234907;28;20597;-60
2022/12/06 00:09:25;;;;;;;6.33;5.00;;;6.80;99.90;;;;;;6249100;28;20471;-60
2022/12/06 00:12:28;;;;;;;4.30;3.90;;;6.80;99.90;;;;;;6248315;28;20474;-60
2022/12/06 00:15:35;;;;;;;5.40;4.53;;;6.80;99.90;;;;;;6248970;28;20553;-60
2022/12/06 00:18:39;;;;;;;4.83;4.43;;;6.80;99.90;;;;;;6248512;28;20479;-60
2022/12/06 00:21:43;;;;;;;5.50;3.93;;;6.80;99.90;;;;;;6248636;28;20479;-60
2022/12/06 00:24:47;;;;;;;4.33;3.93;;;6.80;99.90;;;;;;6248170;28;20482;-60
2022/12/06 00:27:51;;;;;;;4.20;3.30;;;6.80;99.90;;;;;;6247969;28;20483;-60
2022/12/06 00:30:58;;;;;;;4.30;3.80;;;6.80;99.90;;;;;;6248486;28;20475;-60
2022/12/06 00:34:01;;;;;;;5.27;4.27;;;6.70;99.90;;;;;;6248373;28;21052;-59
2022/12/06 00:37:04;;;;;;;3.57;3.27;;;6.70;99.90;;;;;;6247382;28;20498;-59
2022/12/06 00:40:10;;;;;;;4.30;3.80;;;6.70;99.90;;;;;;6247962;28;20997;-59
2022/12/06 00:43:13;;;;;;;3.87;3.07;;;6.70;99.90;;;;;;6248312;28;20989;-59
2022/12/06 00:46:18;;;;;;;3.23;2.93;;;6.60;99.90;;;;;;6247888;28;20495;-59
2022/12/06 00:49:21;;;;;;;4.07;3.30;;;6.60;99.90;;;;;;6251842;28;20479;-60
2022/12/06 00:52:24;;;;;;;3.20;2.90;;;6.50;99.90;;;;;;6248362;28;20471;-60
2022/12/06 00:55:29;;;;;;;3.87;3.50;;;6.50;99.90;;;;;;6249271;28;20975;-59
2022/12/06 00:58:32;;;;;;;3.37;2.83;;;6.40;99.90;;;;;;6247560;28;20482;-59
2022/12/06 01:01:35;;;;;;;5.07;3.03;;;6.30;99.90;;;;;;6247333;28;20547;-60
2022/12/06 01:04:39;;;;;;;5.80;5.27;;;6.30;99.90;;;;;;6247707;28;20989;-60
2022/12/06 01:07:42;;;;;;;6.23;5.27;;;6.10;99.90;;;;;;6247435;28;20989;-60
2022/12/06 01:10:54;;;;;;;4.73;4.33;;;6.00;99.90;;;;;;6238827;28;20490;-60
2022/12/06 01:13:57;;;;;;;5.50;5.03;;;5.90;99.90;;;;;;6247614;28;20533;-60
2022/12/06 01:17:00;;;;;;;3.60;3.30;;;5.90;99.90;;;;;;6247554;28;20479;-60
2022/12/06 01:20:05;;;;;;;5.40;4.90;;;5.80;99.90;;;;;;6247241;28;20536;-59
2022/12/06 01:23:08;;;;;;;5.13;4.57;;;5.70;99.90;;;;;;6247797;28;20494;-59
2022/12/06 01:26:18;;;;;;;5.53;5.03;;;5.60;99.90;;;;;;6246791;28;20479;-60
2022/12/06 01:29:21;;;;;;;6.23;4.97;;;5.60;99.90;;;;;;6247581;28;20483;-60
2022/12/06 01:32:24;;;;;;;5.43;4.93;;;5.50;99.90;;;;;;6247342;28;20494;-59
2022/12/06 01:35:27;;;;;;;5.60;4.97;;;5.40;99.90;;;;;;6247728;28;20471;-59
2022/12/06 01:38:30;;;;;;;5.60;5.07;;;5.40;99.90;;;;;;6246966;28;20483;-59
2022/12/06 01:41:35;;;;;;;4.47;4.13;;;5.40;99.90;;;;;;6247703;28;20487;-59
2022/12/06 01:44:44;;;;;;;5.60;4.33;;;5.50;99.90;;;;;;6247217;28;20840;-59
2022/12/06 01:47:47;;;;;;;5.20;4.70;;;5.50;99.90;;;;;;6256944;28;20475;-59
2022/12/06 01:50:52;;;;;;;7.10;4.97;;;5.40;99.90;;;;;;6258906;28;20475;-59
2022/12/06 01:53:56;;;;;;;4.17;3.87;;;5.50;99.90;;;;;;6246927;28;20455;-59
2022/12/06 01:57:02;;;;;;;4.10;3.80;;;5.60;99.90;;;;;;6246708;28;20451;-60
2022/12/06 02:00:07;;;;;;;4.27;3.90;;;5.60;99.90;;;;;;6246991;28;20827;-59
2022/12/06 02:03:16;;;;;;;4.40;4.07;;;5.70;99.90;;;;;;6246975;28;20447;-59
2022/12/06 02:06:19;;;;;;;4.80;4.40;;;5.70;99.90;;;;;;6246055;28;20955;-59
2022/12/06 02:09:23;;;;;;;4.93;4.43;;;5.80;99.90;;;;;;6245872;28;20996;-59
2022/12/06 02:12:27;;;;;;;8.00;4.20;;;5.80;99.90;;;;;;6243548;28;20977;-59
2022/12/06 02:15:37;;;;;;;4.30;3.90;;;5.80;99.90;;;;;;6249840;28;20935;-60
2022/12/06 02:18:47;;;;;;;4.67;4.27;;;5.70;99.90;;;;;;6245735;28;20847;-62
2022/12/06 02:21:57;;;;;;;4.33;4.03;;;5.70;99.90;;;;;;6243980;28;20475;-60
2022/12/06 02:25:17;;;;;;;3.73;3.43;;;5.70;99.90;;;;;;6249547;28;20777;-60
2022/12/06 02:28:44;;;;;;;3.70;3.40;;;5.70;99.90;;;;;;6246448;28;20526;-60
2022/12/06 02:31:54;;;;;;;5.30;4.80;;;5.70;99.90;;;;;;6239958;28;20475;-60
2022/12/06 02:35:06;;;;;;;6.30;5.70;;;5.70;99.90;;;;;;6241498;28;20502;-60
2022/12/06 02:38:16;;;;;;;6.33;5.67;;;5.60;99.90;;;;;;6236217;28;20506;-60
2022/12/06 02:41:25;;;;;;;5.47;5.07;;;5.50;99.90;;;;;;6241037;28;20491;-61
2022/12/06 02:44:32;;;;;;;5.77;5.07;;;5.50;99.90;;;;;;6238753;28;20471;-60
2022/12/06 02:47:38;;;;;;;5.07;4.67;;;5.40;99.90;;;;;;6251336;28;20471;-60
2022/12/06 02:50:44;;;;;;;5.00;4.50;;;5.30;99.90;;;;;;6251329;28;20792;-60
2022/12/06 02:53:51;;;;;;;4.50;3.93;;;5.30;99.90;;;;;;6251014;28;20864;-60
2022/12/06 02:56:54;;;;;;;4.10;3.70;;;5.30;99.90;;;;;;6248305;28;20497;-60
2022/12/06 02:59:58;;;;;;;4.07;3.77;;;5.20;99.90;;;;;;6251044;28;20479;-60
2022/12/06 03:03:16;;;;;;;4.13;3.83;;;5.20;99.90;;;;;;6250937;28;20593;-60
2022/12/06 03:06:42;;;;;;;7.30;3.90;;;5.20;99.90;;;;;;6249571;28;20462;-60
2022/12/06 03:09:57;;;;;;;3.77;3.47;;;5.20;99.90;;;;;;6251207;28;20498;-60
2022/12/06 03:13:08;;;;;;;3.83;3.53;;;5.20;99.90;;;;;;6247662;28;20474;-60
2022/12/06 03:16:17;;;;;;;3.73;3.40;;;5.20;99.90;;;;;;6238359;28;20467;-60
2022/12/06 03:19:24;;;;;;;4.93;4.43;;;5.30;99.90;;;;;;6241694;28;20502;-60
2022/12/06 03:22:33;;;;;;;6.30;5.80;;;5.20;99.90;;;;;;6247441;28;20482;-65
2022/12/06 03:25:43;;;;;;;9.20;7.63;;;5.20;99.90;;;;;;6251749;28;20971;-66
2022/12/06 03:28:49;;;;;;;7.13;6.47;;;5.20;99.90;;;;;;6249718;28;20482;-64
2022/12/06 03:31:53;;;;;;;6.90;6.30;;;5.20;99.90;;;;;;6239095;28;20479;-64
2022/12/06 03:35:02;;;;;;;5.37;4.97;;;5.20;99.90;;;;;;6237587;28;20478;-64
2022/12/06 03:38:10;;;;;;;7.00;6.40;;;5.20;99.90;;;;;;6239509;28;20480;-63
2022/12/06 03:41:18;;;;;;;4.67;4.30;;;5.30;99.90;;;;;;6237695;28;20545;-64
2022/12/06 03:44:22;;;;;;;5.43;4.93;;;5.30;99.90;;;;;;6247918;28;20853;-65
2022/12/06 03:47:33;;;;;;;4.20;3.80;;;5.40;99.90;;;;;;6250796;28;20528;-66
2022/12/06 03:50:42;;;;;;;4.80;4.40;;;5.50;99.90;;;;;;6250064;28;20530;-66
2022/12/06 03:53:48;;;;;;;3.90;3.60;;;5.60;99.90;;;;;;6248267;28;20471;-66
2022/12/06 03:56:51;;;;;;;5.20;4.70;;;5.60;99.90;;;;;;6250647;28;20459;-64
2022/12/06 03:59:54;;;;;;;4.00;3.60;;;5.50;99.90;;;;;;6249779;28;20486;-64
2022/12/06 04:02:58;;;;;;;4.40;4.10;;;5.50;99.90;;;;;;6250405;28;20478;-64
2022/12/06 04:06:03;;;;;;;4.90;3.50;;;5.50;99.90;;;;;;6247919;28;20435;-64
2022/12/06 04:15:48;;;;;;;4.73;4.27;;;5.50;99.90;;;;;;6248282;28;20493;-62
2022/12/06 04:18:50;;;;;;;3.40;3.10;;;5.50;99.90;;;;;;6248361;28;20481;-62
2022/12/06 04:25:15;;;;;;;3.90;3.60;;;5.50;99.90;;;;;;6248360;28;20471;-63
2022/12/06 04:38:41;;;;;;;4.77;4.13;;;5.70;99.90;;;;;;6246546;28;20556;-63
2022/12/06 04:45:06;;;;;;;5.03;4.50;;;5.80;99.90;;;;;;6247290;28;20428;-64
2022/12/06 04:48:10;;;;;;;5.33;4.47;;;5.80;99.90;;;;;;6247885;28;20493;-64
2022/12/06 04:51:13;;;;;;;5.40;4.63;;;5.80;99.90;;;;;;6247386;28;20478;-64
2022/12/06 04:54:17;;;;;;;4.50;3.87;;;5.80;99.90;;;;;;6246811;28;20482;-64
2022/12/06 04:57:20;;;;;;;5.83;5.33;;;5.80;99.90;;;;;;6248014;28;20482;-64
2022/12/06 05:00:23;;;;;;;12.87;11.97;;;5.80;99.90;;;;;;6247720;28;20483;-64
2022/12/06 05:03:27;;;;;;;13.10;12.10;;;5.80;99.90;;;;;;6247134;28;20475;-65
2022/12/06 05:06:30;;;;;;;8.73;6.93;;;5.80;99.90;;;;;;6247871;28;20467;-64
2022/12/06 05:09:35;;;;;;;6.30;5.77;;;5.80;99.90;;;;;;6247017;28;20744;-65
2022/12/06 05:12:38;;;;;;;5.50;5.00;;;5.80;99.90;;;;;;6247537;28;20533;-62
2022/12/06 05:15:49;;;;;;;5.60;5.13;;;5.90;99.90;;;;;;6247118;28;20486;-64
2022/12/06 05:18:52;;;;;;;7.27;5.53;;;6.00;99.90;;;;;;6246719;28;20476;-64
2022/12/06 05:21:55;;;;;;;7.10;5.37;;;6.00;99.90;;;;;;6245505;28;20620;-61
2022/12/06 05:25:00;;;;;;;6.30;5.70;;;6.00;99.90;;;;;;6237599;28;20471;-61
2022/12/06 05:28:03;;;;;;;8.50;5.03;;;5.90;99.90;;;;;;6245532;28;20483;-61
2022/12/06 05:31:07;;;;;;;5.43;5.03;;;5.90;99.90;;;;;;6246217;28;20489;-60
2022/12/06 05:34:11;;;;;;;7.13;5.40;;;5.90;99.90;;;;;;6246787;28;20556;-61
2022/12/06 05:37:14;;;;;;;7.93;7.13;;;5.90;99.90;;;;;;6247618;28;20475;-61
2022/12/06 05:40:18;;;;;;;7.27;6.67;;;5.80;99.90;;;;;;6246220;28;20476;-61
2022/12/06 05:43:21;;;;;;;7.00;6.40;;;5.70;99.90;;;;;;6246904;28;20507;-61
2022/12/06 05:46:24;;;;;;;6.03;5.50;;;5.60;99.90;;;;;;6248225;28;20939;-60
2022/12/06 05:49:28;;;;;;;8.90;6.47;;;5.50;99.90;;;;;;6273965;28;20524;-61
2022/12/06 05:52:31;;;;;;;7.17;6.47;;;5.50;99.90;;;;;;6251224;28;20483;-60
2022/12/06 05:55:36;;;;;;;6.97;6.30;;;5.50;99.90;;;;;;6251627;28;20466;-61
2022/12/06 05:58:40;;;;;;;9.03;7.20;;;5.50;99.90;;;;;;6251143;28;20471;-60
2022/12/06 06:01:43;;;;;;;8.00;6.50;;;5.60;99.90;;;;;;6251301;28;20474;-61
2022/12/06 06:04:46;;;;;;;9.67;6.57;;;5.70;99.90;;;;;;6251203;28;20479;-60
2022/12/06 06:07:49;;;;;;;8.30;6.77;;;5.70;99.90;;;;;;6251133;28;20481;-61
2022/12/06 06:10:54;;;;;;;8.03;7.20;;;5.70;99.90;;;;;;6251301;28;20475;-61
2022/12/06 06:13:57;;;;;;;9.50;6.17;;;5.60;99.90;;;;;;6250804;28;20552;-61
2022/12/06 06:17:01;;;;;;;8.10;6.27;;;5.70;99.90;;;;;;6251228;28;20478;-61
2022/12/06 06:20:05;;;;;;;8.17;6.47;;;5.70;99.90;;;;;;6251054;28;20471;-61
2022/12/06 06:23:08;;;;;;;7.73;6.93;;;5.80;99.90;;;;;;6250991;28;20483;-62
2022/12/06 06:26:13;;;;;;;7.70;6.40;;;5.70;99.90;;;;;;6251027;28;20537;-62
2022/12/06 06:29:16;;;;;;;7.13;6.23;;;5.80;99.90;;;;;;6250814;28;20906;-64
2022/12/06 06:32:19;;;;;;;8.67;7.37;;;5.80;99.90;;;;;;6251093;28;20475;-62
2022/12/06 06:35:23;;;;;;;7.87;7.17;;;5.80;99.90;;;;;;6250822;28;20817;-62
2022/12/06 06:38:26;;;;;;;7.63;6.83;;;5.90;99.90;;;;;;6250423;28;20479;-62
2022/12/06 06:41:31;;;;;;;8.97;7.70;;;5.90;99.90;;;;;;6250459;28;20479;-62
2022/12/06 06:44:34;;;;;;;7.57;6.77;;;6.00;99.90;;;;;;6250235;28;20938;-61
2022/12/06 06:47:37;;;;;;;9.67;7.50;;;6.00;99.90;;;;;;6259119;28;20474;-65
2022/12/06 06:50:40;;;;;;;7.63;6.80;;;6.00;99.90;;;;;;6263458;28;20471;-61
2022/12/06 06:53:44;;;;;;;8.70;7.80;;;6.10;99.90;;;;;;6251377;28;20481;-61
2022/12/06 06:56:49;;;;;;;8.27;7.00;;;6.10;99.90;;;;;;6252222;28;20963;-60
2022/12/06 06:59:52;;;;;;;9.33;8.10;;;6.20;99.90;;;;;;6249749;28;20493;-63
2022/12/06 07:02:55;;;;;;;8.07;6.80;;;6.20;99.90;;;;;;6250092;28;20482;-62
2022/12/06 07:06:00;;;;;;;7.07;6.40;;;6.20;99.90;;;;;;6250692;28;21016;-62
2022/12/06 07:09:04;;;;;;;7.33;6.63;;;6.30;99.90;;;;;;6250718;28;20464;-63
2022/12/06 07:12:08;;;;;;;8.50;7.13;;;6.30;99.90;;;;;;6249577;28;20772;-62
2022/12/06 07:15:12;;;;;;;8.73;7.13;;;6.40;99.90;;;;;;6250284;28;20458;-64
2022/12/06 07:18:16;;;;;;;9.63;7.43;;;6.40;99.90;;;;;;6250160;28;20479;-64
2022/12/06 07:21:22;;;;;;;7.30;6.40;;;6.50;99.90;;;;;;6249417;28;20526;-61
2022/12/06 07:24:25;;;;;;;8.43;7.07;;;6.60;99.90;;;;;;6249859;28;20471;-60
2022/12/06 07:27:33;;;;;;;7.77;7.07;;;6.60;99.90;;;;;;6249906;28;20486;-62
2022/12/06 07:30:36;;;;;;;8.73;7.30;;;6.70;99.90;;;;;;6249698;28;20486;-61
2022/12/06 07:33:39;;;;;;;7.90;5.90;;;6.80;99.90;;;;;;6239893;28;20483;-60
2022/12/06 07:36:42;;;;;;;7.40;6.67;;;6.90;99.90;;;;;;6249717;28;20487;-60
2022/12/06 07:39:46;;;;;;;6.87;6.03;;;7.00;99.90;;;;;;6249238;28;21005;-60
2022/12/06 07:46:12;;;;;;;5.73;5.13;;;6.90;99.90;;;;;;6249284;28;20559;-62
2022/12/06 07:49:16;;;;;;;6.47;5.97;;;6.90;99.90;;;;;;6271067;28;20489;-61
2022/12/06 07:52:19;;;;;;;7.80;6.20;;;6.90;99.90;;;;;;6224679;28;20464;-63
2022/12/06 07:55:22;;;;;;;6.43;5.83;;;7.00;99.90;;;;;;6225135;28;20479;-62
2022/12/06 07:58:27;;;;;;;9.87;8.87;;;7.00;99.90;;;;;;6224932;28;20483;-62
2022/12/06 08:01:30;;;;;;;10.50;9.30;;;7.10;99.90;;;;;;6224848;28;20998;-62
2022/12/06 08:04:33;;;;;;;7.60;6.87;;;7.10;99.90;;;;;;6225668;28;20479;-62
2022/12/06 08:07:37;;;;;;;8.40;6.93;;;7.20;99.90;;;;;;6225429;28;20476;-62
2022/12/06 08:10:40;;;;;;;7.17;6.47;;;7.30;99.90;;;;;;6224866;28;20486;-62
2022/12/06 08:13:45;;;;;;;6.83;5.77;;;7.30;99.90;;;;;;6244544;28;20830;-62
2022/12/06 08:16:48;;;;;;;7.07;6.40;;;7.30;99.90;;;;;;6249810;28;20476;-63
2022/12/06 08:19:51;;;;;;;5.63;5.23;;;7.30;99.90;;;;;;6249111;28;21147;-62
2022/12/06 08:22:54;;;;;;;5.30;4.90;;;7.50;99.90;;;;;;6248510;28;20496;-62
2022/12/06 08:25:58;;;;;;;6.00;5.43;;;7.70;99.90;;;;;;6249267;28;20479;-62
2022/12/06 08:29:03;;;;;;;6.03;4.77;;;8.00;99.90;;;;;;6248377;28;20497;-62
2022/12/06 08:32:07;;;;;;;5.60;5.17;;;8.40;99.90;;;;;;6247984;28;20491;-62
2022/12/06 08:35:10;;;;;;;5.23;4.73;;;8.60;99.90;;;;;;6248428;28;20479;-62
2022/12/06 08:38:13;;;;;;;5.20;4.80;;;8.70;99.90;;;;;;6244486;28;20471;-62
2022/12/06 08:44:38;;;;;;;6.00;4.83;;;9.00;99.90;;;;;;6247616;28;20505;-62
2022/12/06 08:47:41;;;;;;;5.00;4.57;;;9.10;99.90;;;;;;6257211;28;20470;-62
2022/12/06 08:50:45;;;;;;;5.30;4.90;;;9.10;99.90;;;;;;6260776;28;20494;-62
2022/12/06 08:53:48;;;;;;;5.77;5.30;;;8.90;99.90;;;;;;6248077;28;20478;-62
2022/12/06 08:56:52;;;;;;;5.00;4.60;;;8.70;99.90;;;;;;6242430;28;20580;-63
2022/12/06 08:59:57;;;;;;;7.33;5.17;;;8.50;99.90;;;;;;6244798;28;20620;-63
2022/12/06 09:03:01;;;;;;;6.17;5.67;;;8.40;99.90;;;;;;6248467;28;20462;-63
2022/12/06 09:06:05;;;;;;;5.43;4.93;;;8.40;99.90;;;;;;6248146;28;20454;-63
2022/12/06 09:09:09;;;;;;;6.10;5.50;;;8.30;99.90;;;;;;6248815;28;20467;-63
2022/12/06 09:12:13;;;;;;;7.53;6.80;;;8.20;99.90;;;;;;6247296;28;20479;-63
2022/12/06 09:15:18;;;;;;;38.07;27.80;;;8.10;99.90;;;;;;6248481;28;20583;-65
2022/12/06 09:18:21;;;;;;;11.63;10.33;;;8.20;99.90;;;;;;6247914;28;20471;-64
2022/12/06 09:21:27;;;;;;;6.27;5.70;;;8.20;99.90;;;;;;6249824;28;20466;-62
2022/12/06 09:24:30;;;;;;;6.93;6.30;;;8.10;99.90;;;;;;6252486;28;20801;-64
2022/12/06 09:27:34;;;;;;;5.73;5.23;;;8.00;99.90;;;;;;6253187;28;20485;-62
2022/12/06 09:30:38;;;;;;;5.80;5.30;;;8.00;99.90;;;;;;6241183;28;20476;-63
2022/12/06 09:33:42;;;;;;;6.03;5.47;;;7.90;99.90;;;;;;6240373;28;20471;-62
2022/12/06 09:36:48;;;;;;;5.40;4.90;;;7.70;99.90;;;;;;6238212;28;20476;-62
2022/12/06 09:39:55;;;;;;;5.00;4.60;;;7.60;99.90;;;;;;6248903;28;20475;-62
2022/12/06 09:43:14;;;;;;;7.00;5.57;;;7.60;99.90;;;;;;6243132;28;20481;-63
2022/12/06 09:46:42;;;;;;;5.87;5.40;;;7.60;99.90;;;;;;6250893;28;20475;-62
2022/12/06 09:49:58;;;;;;;6.00;5.50;;;7.60;99.90;;;;;;6250831;28;20474;-62
2022/12/06 09:53:14;;;;;;;7.50;6.70;;;7.60;99.90;;;;;;6250742;28;20471;-62
2022/12/06 09:56:25;;;;;;;8.73;7.93;;;7.60;99.90;;;;;;6250031;28;21136;-62
2022/12/06 09:59:37;;;;;;;9.80;8.90;;;7.60;99.90;;;;;;6243000;28;20487;-62
2022/12/06 10:03:01;;;;;;;10.43;9.33;;;7.60;99.90;;;;;;6240153;28;20907;-63
2022/12/06 10:06:12;;;;;;;12.67;11.33;;;7.50;99.90;;;;;;6241214;28;20452;-62
2022/12/06 10:09:33;;;;;;;11.47;10.27;;;7.50;99.90;;;;;;6236910;28;20784;-62
2022/12/06 10:12:48;;;;;;;12.93;11.53;;;7.60;99.90;;;;;;6246755;28;20471;-62
2022/12/06 10:16:05;;;;;;;10.53;9.50;;;7.70;99.90;;;;;;6246604;28;20490;-62
2022/12/06 10:19:21;;;;;;;12.70;11.50;;;7.80;99.90;;;;;;6251387;28;20483;-62
2022/12/06 10:22:36;;;;;;;12.10;10.93;;;8.00;99.90;;;;;;6251913;28;20471;-63
2022/12/06 10:25:42;;;;;;;11.60;10.50;;;8.00;99.90;;;;;;6251417;28;20490;-61
2022/12/06 10:28:48;;;;;;;11.37;10.17;;;7.90;99.90;;;;;;6251287;28;20792;-62
2022/12/06 10:31:57;;;;;;;10.53;9.53;;;7.90;99.90;;;;;;6250901;28;20463;-62
2022/12/06 10:35:13;;;;;;;11.93;10.47;;;8.00;99.90;;;;;;6251059;28;20485;-62
2022/12/06 10:38:28;;;;;;;11.83;10.60;;;8.00;99.90;;;;;;6250932;28;20479;-62
2022/12/06 10:41:38;;;;;;;14.10;10.07;;;8.20;99.90;;;;;;6250822;28;20567;-62
2022/12/06 10:44:45;;;;;;;10.83;9.70;;;8.40;99.90;;;;;;6250487;28;20467;-61
2022/12/06 10:47:48;;;;;;;9.93;9.03;;;8.60;99.90;;;;;;6255976;28;20479;-62
2022/12/06 10:50:58;;;;;;;9.93;8.93;;;8.90;99.90;;;;;;6262444;28;20475;-62
2022/12/06 10:54:09;;;;;;;11.13;10.13;;;9.10;99.90;;;;;;6250722;28;21147;-62
2022/12/06 10:57:19;;;;;;;10.60;9.50;;;9.00;99.90;;;;;;6251796;28;20479;-62
2022/12/06 11:00:24;;;;;;;15.30;11.30;;;8.90;99.90;;;;;;6251078;28;20495;-62
2022/12/06 11:03:34;;;;;;;10.87;9.77;;;8.50;99.90;;;;;;6242545;28;20463;-63
2022/12/06 11:06:44;;;;;;;14.60;11.03;;;8.70;99.90;;;;;;6250345;28;20475;-62
2022/12/06 11:09:57;;;;;;;12.10;10.40;;;9.40;99.90;;;;;;6250315;28;20482;-62
2022/12/06 11:13:11;;;;;;;12.17;10.43;;;9.30;99.90;;;;;;6244697;28;20480;-62
2022/12/06 11:16:20;;;;;;;11.77;10.50;;;9.00;99.90;;;;;;6248798;28;20932;-62
2022/12/06 11:19:32;;;;;;;11.40;9.83;;;8.90;99.90;;;;;;6250146;28;20479;-62
2022/12/06 11:22:45;;;;;;;9.07;8.27;;;8.90;99.90;;;;;;6244288;28;20523;-62
2022/12/06 11:26:01;;;;;;;9.97;8.97;;;8.90;99.90;;;;;;6236907;28;20483;-62
2022/12/06 11:29:09;;;;;;;9.93;9.10;;;8.60;99.90;;;;;;6236738;28;20475;-61
2022/12/06 11:32:14;;;;;;;7.90;7.10;;;8.40;99.90;;;;;;6225381;28;20483;-61
2022/12/06 11:35:21;;;;;;;8.80;7.83;;;7.80;99.90;;;;;;6224784;28;20482;-61
2022/12/06 11:38:26;;;;;;;9.33;8.50;;;7.50;99.90;;;;;;6225236;28;20965;-61
2022/12/06 11:41:33;;;;;;;9.33;7.47;;;7.60;99.90;;;;;;6243040;28;20479;-61
2022/12/06 11:44:41;;;;;;;9.20;8.30;;;7.80;99.90;;;;;;6249040;28;20478;-61
2022/12/06 11:47:53;;;;;;;8.00;6.97;;;7.80;99.90;;;;;;6260248;28;20949;-61
2022/12/06 11:50:56;;;;;;;8.27;7.50;;;7.80;99.90;;;;;;6260476;28;20487;-63
2022/12/06 11:54:06;;;;;;;7.63;6.93;;;8.00;99.90;;;;;;6242212;28;20471;-63
2022/12/06 11:57:16;;;;;;;6.10;5.60;;;8.10;99.90;;;;;;6249416;28;20770;-61
2022/12/06 12:00:25;;;;;;;7.53;6.87;;;8.20;99.90;;;;;;6249105;28;20936;-63
2022/12/06 12:03:32;;;;;;;6.87;6.13;;;8.20;99.90;;;;;;6248708;28;20471;-63
2022/12/06 12:06:37;;;;;;;8.20;7.43;;;8.20;99.90;;;;;;6248675;28;20485;-63
2022/12/06 12:09:51;;;;;;;7.37;6.67;;;8.00;99.90;;;;;;6247910;28;20487;-61
2022/12/06 12:16:20;;;;;;;7.90;7.17;;;7.90;99.90;;;;;;6247546;28;20534;-60
2022/12/06 12:19:34;;;;;;;8.73;7.90;;;7.80;99.90;;;;;;6247555;28;20477;-66
2022/12/06 12:22:41;;;;;;;9.80;8.53;;;7.70;99.90;;;;;;6247466;28;20487;-60
2022/12/06 12:25:59;;;;;;;9.10;8.20;;;7.60;99.90;;;;;;6248331;28;20533;-61
2022/12/06 12:29:05;;;;;;;9.43;8.53;;;7.60;99.90;;;;;;6248381;28;20483;-61
2022/12/06 12:32:11;;;;;;;10.70;9.80;;;7.40;99.90;;;;;;6248254;28;20476;-61
2022/12/06 12:35:27;;;;;;;9.83;8.70;;;7.20;99.90;;;;;;6248692;28;20482;-61
2022/12/06 12:38:37;;;;;;;9.83;8.83;;;7.20;99.90;;;;;;6248309;28;20463;-61
2022/12/06 12:41:44;;;;;;;8.97;8.13;;;7.20;99.90;;;;;;6247951;28;20475;-60
2022/12/06 12:44:47;;;;;;;8.70;7.90;;;7.30;99.90;;;;;;6248241;28;20814;-61
2022/12/06 12:47:59;;;;;;;11.30;7.23;;;7.40;99.90;;;;;;6258148;28;20470;-61
2022/12/06 12:51:05;;;;;;;9.27;8.27;;;7.50;99.90;;;;;;6259214;28;20881;-60
2022/12/06 12:54:21;;;;;;;12.00;9.70;;;7.50;99.90;;;;;;6234271;28;20424;-61
2022/12/06 12:57:25;;;;;;;10.70;9.17;;;7.30;99.90;;;;;;6247918;28;20464;-60
2022/12/06 13:00:32;;;;;;;9.10;8.17;;;7.30;99.90;;;;;;6247948;28;20474;-60
2022/12/06 13:03:36;;;;;;;9.13;7.80;;;7.20;99.90;;;;;;6248053;28;20471;-60
2022/12/06 13:06:59;;;;;;;14.50;8.77;;;7.30;99.90;;;;;;6247941;28;20478;-60
2022/12/06 13:10:05;;;;;;;9.07;8.17;;;7.30;99.90;;;;;;6247668;28;21176;-61
2022/12/06 13:13:16;;;;;;;8.90;7.77;;;7.20;99.90;;;;;;6247673;28;20486;-61
2022/12/06 13:16:24;;;;;;;11.33;7.60;;;7.20;99.90;;;;;;6248036;28;20471;-61
2022/12/06 13:19:33;;;;;;;10.37;9.27;;;7.20;99.90;;;;;;6247512;28;20819;-61
2022/12/06 13:22:43;;;;;;;11.43;8.53;;;6.90;99.90;;;;;;6247710;28;20494;-60
2022/12/06 13:25:52;;;;;;;10.20;9.10;;;6.80;99.90;;;;;;6247594;28;20486;-60
2022/12/06 13:29:03;;;;;;;9.37;8.37;;;6.80;99.90;;;;;;6247767;28;20479;-60
2022/12/06 13:32:11;;;;;;;9.80;8.03;;;6.80;99.90;;;;;;6247240;28;20490;-61
2022/12/06 13:35:22;;;;;;;11.80;8.60;;;6.80;99.90;;;;;;6248037;28;20882;-60
2022/12/06 13:38:31;;;;;;;9.10;8.30;;;6.70;99.90;;;;;;6247766;28;20486;-60
2022/12/06 13:42:20;;;;;;;9.20;8.30;;;6.70;99.90;;;;;;6246628;28;20480;-62
2022/12/06 13:45:45;;;;;;;9.97;8.40;;;6.80;99.90;;;;;;6241915;28;20892;-61
2022/12/06 13:48:50;;;;;;;10.47;8.47;;;6.80;99.90;;;;;;6265497;28;20638;-61
2022/12/06 13:51:53;;;;;;;8.77;7.87;;;6.40;99.90;;;;;;6250213;28;20472;-62
2022/12/06 13:54:56;;;;;;;9.33;8.53;;;6.50;99.90;;;;;;6247495;28;20475;-62
2022/12/06 13:58:51;;;;;;;12.33;9.63;;;6.50;99.90;;;;;;6238733;28;20484;-62
2022/12/06 14:01:57;;;;;;;10.20;9.30;;;6.60;99.90;;;;;;6247237;28;20484;-61
2022/12/06 14:05:00;;;;;;;10.70;9.53;;;6.60;99.90;;;;;;6247366;28;20659;-60
2022/12/06 14:08:04;;;;;;;16.67;9.57;;;6.60;99.90;;;;;;6249619;28;20494;-61
2022/12/06 14:11:14;;;;;;;11.80;10.70;;;6.60;99.90;;;;;;6251602;28;20959;-60
2022/12/06 14:14:21;;;;;;;11.30;10.17;;;6.30;99.90;;;;;;6226513;28;20472;-60
2022/12/06 14:17:34;;;;;;;10.43;9.37;;;6.20;99.90;;;;;;6226911;28;20471;-60
2022/12/06 14:20:57;;;;;;;15.87;10.00;;;6.30;99.90;;;;;;6226729;28;20508;-61
2022/12/06 14:24:01;;;;;;;12.13;10.63;;;6.30;99.90;;;;;;6226364;28;20498;-61
2022/12/06 14:27:10;;;;;;;11.63;10.53;;;6.30;99.90;;;;;;6226994;28;20467;-60
2022/12/06 14:30:17;;;;;;;12.70;10.20;;;6.30;99.90;;;;;;6225402;28;21105;-61
2022/12/06 14:33:29;;;;;;;11.60;10.40;;;6.30;99.90;;;;;;6226249;28;20468;-62
2022/12/06 14:36:34;;;;;;;13.30;9.40;;;6.20;99.90;;;;;;6226405;28;20587;-61
2022/12/06 14:39:37;;;;;;;11.30;10.30;;;6.20;99.90;;;;;;6226139;28;20832;-61
2022/12/06 14:43:00;;;;;;;12.63;11.33;;;6.20;99.90;;;;;;6226064;28;20527;-61
2022/12/06 14:46:06;;;;;;;10.53;9.23;;;6.30;99.90;;;;;;6226337;28;20546;-60
2022/12/06 14:52:36;;;;;;;13.20;10.73;;;6.20;99.90;;;;;;6225838;28;20473;-61
2022/12/06 14:55:53;;;;;;;10.43;9.17;;;6.20;99.90;;;;;;6226204;28;20483;-61
2022/12/06 14:58:58;;;;;;;11.30;10.27;;;6.20;99.90;;;;;;6225512;28;20489;-61
2022/12/06 15:02:01;;;;;;;11.80;10.10;;;6.20;99.90;;;;;;6221714;28;20476;-62
2022/12/06 15:05:34;;;;;;;12.47;11.20;;;6.20;99.90;;;;;;6225568;28;20483;-61
2022/12/06 15:08:40;;;;;;;11.73;10.63;;;6.20;99.90;;;;;;6225383;28;20476;-60
2022/12/06 15:15:05;;;;;;;13.00;11.23;;;6.00;99.90;;;;;;6275010;28;20439;-61
2022/12/06 15:18:19;;;;;;;13.47;11.97;;;6.00;99.90;;;;;;6274900;28;20769;-61
2022/12/06 15:21:24;;;;;;;20.70;15.00;;;6.00;99.90;;;;;;6275642;28;20462;-61
2022/12/06 15:24:28;;;;;;;18.13;11.90;;;6.10;99.90;;;;;;6274430;28;20467;-61
2022/12/06 15:27:33;;;;;;;11.33;10.23;;;6.10;99.90;;;;;;6274826;28;20478;-61
2022/12/06 15:30:36;;;;;;;11.70;10.50;;;6.10;99.90;;;;;;6274358;28;20925;-60
2022/12/06 15:33:39;;;;;;;13.20;11.60;;;6.20;99.90;;;;;;6274489;28;20490;-60
2022/12/06 15:36:44;;;;;;;11.27;10.17;;;6.30;99.90;;;;;;6274082;28;20473;-60
2022/12/06 15:39:47;;;;;;;14.20;11.30;;;6.20;99.90;;;;;;6264671;28;20483;-61
2022/12/06 15:42:50;;;;;;;14.63;13.10;;;6.20;99.90;;;;;;6249206;28;20471;-60
2022/12/06 15:45:53;;;;;;;13.27;11.90;;;6.20;99.90;;;;;;6249223;28;20482;-61
2022/12/06 15:48:57;;;;;;;13.40;12.00;;;6.20;99.90;;;;;;6248826;28;20846;-61
2022/12/06 15:52:01;;;;;;;12.97;11.27;;;6.30;99.90;;;;;;6248805;28;20471;-60
2022/12/06 15:55:05;;;;;;;16.53;10.70;;;6.40;99.90;;;;;;6249298;28;20501;-60
2022/12/06 15:58:08;;;;;;;12.20;9.93;;;6.40;99.90;;;;;;6248958;28;21054;-61
2022/12/06 16:01:16;;;;;;;14.67;13.20;;;6.50;99.90;;;;;;6248957;28;20489;-60
2022/12/06 16:04:22;;;;;;;14.03;12.63;;;6.50;99.90;;;;;;6248908;28;20566;-61
2022/12/06 16:07:26;;;;;;;11.47;10.37;;;6.50;99.90;;;;;;6249078;28;20478;-60
2022/12/06 16:10:30;;;;;;;12.27;11.00;;;6.50;99.90;;;;;;6248367;28;20482;-61
2022/12/06 16:13:53;;;;;;;11.60;10.47;;;6.50;99.90;;;;;;6247875;28;20451;-61
2022/12/06 16:16:56;;;;;;;11.33;10.23;;;6.30;99.90;;;;;;6249059;28;20475;-62
2022/12/06 16:27:04;;;;;;;13.00;11.17;;;6.20;99.90;;;;;;6272951;28;20477;-59
2022/12/06 16:30:09;;;;;;;13.23;11.93;;;6.20;99.90;;;;;;6273213;28;20857;-60
2022/12/06 16:33:17;;;;;;;13.77;12.23;;;6.30;99.90;;;;;;6273187;28;20549;-61
2022/12/06 16:36:22;;;;;;;11.77;10.57;;;6.30;99.90;;;;;;6259665;28;20790;-60
2022/12/06 16:39:27;;;;;;;14.23;12.83;;;6.40;99.90;;;;;;6246870;28;20462;-60
2022/12/06 16:42:31;;;;;;;16.40;14.40;;;6.50;99.90;;;;;;6244128;28;20459;-60
2022/12/06 16:45:36;;;;;;;12.80;11.50;;;6.50;99.90;;;;;;6247038;28;20503;-60
2022/12/06 16:48:41;;;;;;;15.43;13.60;;;6.60;99.90;;;;;;6264287;28;20827;-59
2022/12/06 16:51:45;;;;;;;14.20;12.60;;;6.40;99.90;;;;;;6279540;22;20482;-60
2022/12/06 16:54:53;;;;;;;17.00;14.93;;;6.40;99.90;;;;;;6272856;28;20482;-60
2022/12/06 16:57:56;;;;;;;22.90;14.90;;;6.40;99.90;;;;;;6272879;28;20474;-60
2022/12/06 17:01:02;;;;;;;20.87;14.90;;;6.40;99.90;;;;;;6272408;28;20485;-60
2022/12/06 17:04:07;;;;;;;17.17;15.37;;;6.50;99.90;;;;;;6272697;28;20488;-60
2022/12/06 17:07:12;;;;;;;17.00;15.10;;;6.60;99.90;;;;;;6267953;28;20561;-60